Time;durP1;ratioP1;P1;durP2;ratioP2;P2;SDS_P1;SDS_P2;PMS_P1;PMS_P2;Temp;Humidity;BMP_temperature;BMP_pressure;BME280_temperature;BME280_humidity;BME280_pressure;Samples;Min_cycle;Max_cycle;Signal;HPM_P1;HPM_P2
2021/07/03 00:00:15;;;;;;;19.83;14.10;;;;;;;15.90;100.00;100853.84;3574218;40;20085;-54
2021/07/03 00:02:42;;;;;;;23.85;16.02;;;;;;;15.71;100.00;100862.31;3573959;40;20108;-52
2021/07/03 00:05:10;;;;;;;20.23;15.27;;;;;;;15.66;100.00;100864.00;3574014;40;20073;-53
2021/07/03 00:07:37;;;;;;;20.08;15.95;;;;;;;15.95;100.00;100862.50;3573555;40;20089;-53
2021/07/03 00:10:05;;;;;;;23.20;16.05;;;;;;;15.93;100.00;100860.75;3573437;40;20080;-54
2021/07/03 00:12:33;;;;;;;26.05;16.08;;;;;;;15.65;100.00;100860.53;3573497;40;20049;-50
2021/07/03 00:15:00;;;;;;;23.23;16.75;;;;;;;15.59;100.00;100857.91;3574005;40;20072;-52
2021/07/03 00:17:27;;;;;;;22.95;16.05;;;;;;;15.54;100.00;100867.31;3573527;40;20049;-52
2021/07/03 00:19:55;;;;;;;21.17;16.17;;;;;;;15.61;100.00;100865.66;3573336;40;20077;-52
2021/07/03 00:22:22;;;;;;;25.52;18.08;;;;;;;15.49;100.00;100863.84;3573432;40;20053;-52
2021/07/03 00:24:49;;;;;;;22.52;16.75;;;;;;;15.51;100.00;100868.16;3573433;40;20089;-53
2021/07/03 00:27:16;;;;;;;24.40;17.42;;;;;;;15.62;100.00;100868.25;3573144;40;20084;-52
2021/07/03 00:29:45;;;;;;;28.40;16.73;;;;;;;15.63;100.00;100864.81;3573494;40;20101;-57
2021/07/03 00:32:16;;;;;;;26.17;17.00;;;;;;;15.44;100.00;100865.53;3574668;40;20109;-58
2021/07/03 00:34:43;;;;;;;25.77;18.30;;;;;;;15.51;100.00;100867.28;3574198;40;20154;-55
2021/07/03 00:37:10;;;;;;;28.55;18.33;;;;;;;15.61;100.00;100861.34;3574271;40;20105;-53
2021/07/03 00:39:37;;;;;;;28.85;19.55;;;;;;;15.42;100.00;100862.03;3574950;40;20406;-54
2021/07/03 00:42:04;;;;;;;23.80;18.73;;;;;;;15.45;100.00;100869.81;3575096;40;20451;-51
2021/07/03 00:44:33;;;;;;;27.45;19.17;;;;;;;15.40;100.00;100874.09;3574922;40;20321;-56
2021/07/03 00:47:00;;;;;;;22.48;17.40;;;;;;;15.31;100.00;100874.88;3575171;40;20559;-51
2021/07/03 00:49:28;;;;;;;29.10;18.63;;;;;;;15.54;100.00;100875.06;3574802;40;20134;-53
2021/07/03 00:51:55;;;;;;;31.35;20.02;;;;;;;15.56;100.00;100877.66;3574732;40;20088;-55
2021/07/03 00:54:22;;;;;;;34.35;20.23;;;;;;;15.31;100.00;100861.97;3574922;40;20120;-54
2021/07/03 00:57:01;;;;;;;33.72;20.60;;;;;;;15.25;100.00;100865.38;3574852;40;20484;-52
2021/07/03 00:59:33;;;;;;;30.35;19.38;;;;;;;15.49;100.00;100866.44;3574753;40;20053;-55
2021/07/03 01:02:01;;;;;;;30.17;20.67;;;;;;;15.58;100.00;100870.81;3574744;40;20053;-56
2021/07/03 01:04:29;;;;;;;28.90;19.67;;;;;;;15.59;100.00;100868.22;3574848;40;20052;-50
2021/07/03 01:06:56;;;;;;;29.27;19.40;;;;;;;15.72;100.00;100864.91;3574598;40;20092;-53
2021/07/03 01:09:24;;;;;;;28.60;19.17;;;;;;;15.83;100.00;100864.13;3574374;40;20080;-54
2021/07/03 01:11:52;;;;;;;29.05;19.52;;;;;;;15.49;100.00;100864.69;3574739;40;20101;-54
2021/07/03 01:14:20;;;;;;;32.03;21.10;;;;;;;15.34;100.00;100858.53;3574595;40;20113;-53
2021/07/03 01:16:48;;;;;;;29.55;21.92;;;;;;;15.42;100.00;100864.63;3574806;40;20093;-51
2021/07/03 01:19:16;;;;;;;27.25;20.15;;;;;;;15.31;100.00;100859.38;3574204;40;20049;-54
2021/07/03 01:21:54;;;;;;;30.17;20.40;;;;;;;15.50;100.00;100862.97;3574753;40;20488;-55
2021/07/03 01:24:23;;;;;;;30.77;20.25;;;;;;;15.39;100.00;100860.31;3574852;40;20096;-55
2021/07/03 01:26:53;;;;;;;31.83;22.13;;;;;;;15.27;100.00;100858.47;3574482;40;20115;-54
2021/07/03 01:29:24;;;;;;;30.48;20.45;;;;;;;14.98;100.00;100857.34;3574369;40;20089;-54
2021/07/03 01:31:54;;;;;;;34.15;21.90;;;;;;;15.20;100.00;100856.69;3574266;40;20053;-53
2021/07/03 01:34:24;;;;;;;32.38;21.85;;;;;;;14.95;100.00;100859.88;3574457;40;20072;-55
2021/07/03 01:36:51;;;;;;;33.47;22.42;;;;;;;15.17;100.00;100859.25;3574955;40;20092;-53
2021/07/03 01:39:19;;;;;;;33.17;22.48;;;;;;;15.07;100.00;100857.44;3565016;40;20180;-53
2021/07/03 01:41:46;;;;;;;39.90;22.50;;;;;;;14.98;100.00;100853.06;3574533;40;20063;-56
2021/07/03 01:44:27;;;;;;;32.95;22.50;;;;;;;15.18;100.00;100860.97;3574557;40;20300;-53
2021/07/03 01:46:57;;;;;;;31.30;21.00;;;;;;;15.33;100.00;100860.25;3574327;40;20626;-51
2021/07/03 01:49:26;;;;;;;34.35;23.60;;;;;;;15.26;100.00;100855.91;3574499;40;20087;-58
2021/07/03 01:51:53;;;;;;;35.22;22.02;;;;;;;15.38;100.00;100856.00;3574655;40;20057;-51
2021/07/03 01:54:21;;;;;;;31.20;22.08;;;;;;;15.17;100.00;100854.09;3574605;40;20148;-53
2021/07/03 01:56:58;;;;;;;32.10;21.63;;;;;;;15.14;100.00;100845.44;3574616;40;20076;-56
2021/07/03 01:59:28;;;;;;;33.53;21.05;;;;;;;15.12;100.00;100849.75;3574258;40;20081;-51
2021/07/03 02:01:56;;;;;;;30.38;21.45;;;;;;;15.12;100.00;100858.34;3574379;40;20084;-53
2021/07/03 02:04:24;;;;;;;29.60;21.42;;;;;;;15.16;100.00;100852.38;3574457;40;20447;-52
2021/07/03 02:06:51;;;;;;;32.97;23.88;;;;;;;14.93;100.00;100849.56;3574301;40;20485;-54
2021/07/03 02:09:19;;;;;;;36.17;22.60;;;;;;;15.10;100.00;100849.72;3574224;40;20092;-54
2021/07/03 02:11:47;;;;;;;36.55;23.42;;;;;;;15.13;100.00;100848.91;3574528;40;20072;-54
2021/07/03 02:14:14;;;;;;;35.95;23.17;;;;;;;15.12;100.00;100845.44;3574450;40;20392;-55
2021/07/03 02:16:42;;;;;;;32.85;22.50;;;;;;;15.34;100.00;100853.38;3574298;40;20088;-53
2021/07/03 02:19:10;;;;;;;33.83;22.00;;;;;;;15.39;100.00;100846.53;3574063;40;20328;-53
2021/07/03 02:21:37;;;;;;;38.90;24.15;;;;;;;15.06;100.00;100847.94;3577827;39;20066;-54
2021/07/03 02:24:05;;;;;;;35.13;23.15;;;;;;;14.94;100.00;100847.84;3584358;39;20872;-57
2021/07/03 02:26:32;;;;;;;34.90;23.45;;;;;;;14.91;100.00;100848.66;3584444;39;20080;-56
2021/07/03 02:28:59;;;;;;;30.73;21.27;;;;;;;15.06;100.00;100845.38;3584447;39;20084;-55
2021/07/03 02:31:27;;;;;;;32.70;22.80;;;;;;;15.13;100.00;100846.31;3584232;39;20084;-52
2021/07/03 02:33:54;;;;;;;34.28;24.63;;;;;;;14.78;100.00;100847.66;3584381;39;20052;-54
2021/07/03 02:36:21;;;;;;;35.85;24.42;;;;;;;14.81;100.00;100848.56;3584161;39;20120;-53
2021/07/03 02:38:48;;;;;;;36.78;24.13;;;;;;;14.65;100.00;100844.94;3584178;39;20092;-52
2021/07/03 02:41:16;;;;;;;37.97;23.65;;;;;;;14.60;100.00;100844.00;3584016;39;20062;-55
2021/07/03 02:43:43;;;;;;;38.20;25.70;;;;;;;14.54;100.00;100843.94;3584416;39;20449;-58
2021/07/03 02:46:10;;;;;;;35.22;23.60;;;;;;;14.81;100.00;100844.28;3584291;39;20112;-54
2021/07/03 02:48:37;;;;;;;37.00;24.98;;;;;;;14.77;100.00;100845.94;3584174;39;20062;-55
2021/07/03 02:51:04;;;;;;;41.80;26.30;;;;;;;14.87;100.00;100834.00;3584238;39;20085;-53
2021/07/03 02:53:31;;;;;;;36.20;24.20;;;;;;;14.74;100.00;100832.16;3585201;39;20047;-55
2021/07/03 02:55:59;;;;;;;41.30;26.70;;;;;;;14.58;100.00;100830.25;3584353;39;20060;-54
2021/07/03 02:58:27;;;;;;;40.65;26.48;;;;;;;14.59;100.00;100832.84;3583885;39;20120;-54
2021/07/03 03:00:54;;;;;;;45.47;27.20;;;;;;;14.54;100.00;100819.03;3584145;39;20076;-55
2021/07/03 03:03:21;;;;;;;41.05;27.38;;;;;;;14.46;100.00;100830.94;3584359;39;20081;-55
2021/07/03 03:05:48;;;;;;;41.95;27.50;;;;;;;14.44;100.00;100830.94;3584409;39;20088;-55
2021/07/03 03:08:15;;;;;;;44.50;27.27;;;;;;;14.11;100.00;100831.38;3584128;39;20460;-52
2021/07/03 03:10:42;;;;;;;47.47;28.52;;;;;;;13.90;100.00;100824.19;3584413;39;20051;-51
2021/07/03 03:13:09;;;;;;;40.55;26.77;;;;;;;14.09;100.00;100821.88;3584164;39;20108;-55
2021/07/03 03:15:36;;;;;;;42.58;27.25;;;;;;;14.13;100.00;100829.66;3584258;39;20147;-53
2021/07/03 03:18:03;;;;;;;45.00;27.65;;;;;;;14.27;100.00;100828.13;3584210;39;20056;-54
2021/07/03 03:20:31;;;;;;;44.63;27.55;;;;;;;14.17;100.00;100828.00;3584202;39;20052;-54
2021/07/03 03:22:58;;;;;;;46.95;28.85;;;;;;;14.24;100.00;100827.25;3584333;39;20056;-57
2021/07/03 03:25:25;;;;;;;42.20;26.90;;;;;;;14.17;100.00;100830.56;3574745;39;20440;-54
2021/07/03 03:27:52;;;;;;;48.58;28.33;;;;;;;14.21;100.00;100840.94;3584044;39;20108;-52
2021/07/03 03:30:19;;;;;;;42.55;28.00;;;;;;;14.12;100.00;100835.66;3584113;39;20406;-56
2021/07/03 03:32:46;;;;;;;50.80;29.73;;;;;;;14.05;100.00;100833.88;3584028;39;20338;-54
2021/07/03 03:35:14;;;;;;;52.63;29.00;;;;;;;13.92;100.00;100835.41;3584123;39;20430;-54
2021/07/03 03:37:41;;;;;;;52.78;29.00;;;;;;;13.86;100.00;100837.84;3584254;39;20064;-54
2021/07/03 03:40:09;;;;;;;47.67;29.83;;;;;;;13.98;100.00;100832.03;3584043;39;20437;-52
2021/07/03 03:42:36;;;;;;;42.40;27.35;;;;;;;14.18;100.00;100845.19;3584254;39;20049;-51
2021/07/03 03:45:05;;;;;;;50.80;28.83;;;;;;;13.95;100.00;100837.13;3583534;39;20448;-50
2021/07/03 03:47:32;;;;;;;46.58;28.70;;;;;;;14.17;100.00;100841.75;3583794;39;20138;-54
2021/07/03 03:50:00;;;;;;;45.65;28.65;;;;;;;14.18;100.00;100840.88;3584329;39;20271;-53
2021/07/03 03:52:27;;;;;;;44.05;29.88;;;;;;;13.98;100.00;100838.03;3583932;39;20462;-56
2021/07/03 03:54:54;;;;;;;41.97;28.27;;;;;;;14.18;100.00;100842.59;3583958;39;20053;-54
2021/07/03 03:57:21;;;;;;;48.47;29.17;;;;;;;14.33;100.00;100840.25;3583775;39;20072;-51
2021/07/03 03:59:52;;;;;;;46.10;27.85;;;;;;;14.22;100.00;100847.81;3583595;39;20437;-54
2021/07/03 04:02:20;;;;;;;41.97;28.42;;;;;;;14.30;100.00;100847.94;3583528;39;20089;-54
2021/07/03 04:04:48;;;;;;;41.05;28.27;;;;;;;14.57;100.00;100849.16;3583852;39;20060;-53
2021/07/03 04:07:16;;;;;;;39.13;27.25;;;;;;;14.74;100.00;100850.19;3583614;39;20092;-52
2021/07/03 04:09:43;;;;;;;44.20;28.67;;;;;;;14.52;100.00;100851.69;3583346;39;20399;-55
2021/07/03 04:12:10;;;;;;;41.20;27.10;;;;;;;14.59;100.00;100850.88;3585671;39;20444;-56
2021/07/03 04:14:37;;;;;;;40.85;27.55;;;;;;;14.55;100.00;100841.38;3586031;39;20068;-55
2021/07/03 04:17:04;;;;;;;46.75;28.10;;;;;;;14.62;100.00;100840.63;3583822;39;20096;-55
2021/07/03 04:19:32;;;;;;;42.72;27.92;;;;;;;14.96;100.00;100848.72;3585447;39;20123;-53
2021/07/03 04:21:59;;;;;;;43.03;28.10;;;;;;;14.54;100.00;100849.09;3585381;39;20104;-58
2021/07/03 04:24:26;;;;;;;42.80;27.73;;;;;;;14.64;100.00;100845.78;3584785;39;20089;-52
2021/07/03 04:26:54;;;;;;;37.03;25.63;;;;;;;14.99;100.00;100843.59;3585600;39;20347;-54
2021/07/03 04:29:21;;;;;;;44.30;27.30;;;;;;;14.69;100.00;100834.66;3585282;39;20096;-55
2021/07/03 04:31:48;;;;;;;41.47;26.85;;;;;;;14.84;100.00;100836.56;3584762;39;20087;-54
2021/07/03 04:34:15;;;;;;;44.78;28.67;;;;;;;15.19;100.00;100842.06;3585083;39;20717;-54
2021/07/03 04:36:42;;;;;;;45.60;27.92;;;;;;;15.34;100.00;100843.91;3584871;39;20161;-54
2021/07/03 04:39:09;;;;;;;41.83;27.48;;;;;;;15.44;100.00;100843.16;3584396;39;20100;-56
2021/07/03 04:41:37;;;;;;;40.30;27.10;;;;;;;15.63;100.00;100835.56;3584892;39;20047;-55
2021/07/03 04:44:06;;;;;;;40.20;26.20;;;;;;;15.56;100.00;100842.38;3584932;39;20270;-56
2021/07/03 04:46:34;;;;;;;38.50;26.45;;;;;;;16.01;100.00;100844.44;3585012;39;20088;-56
2021/07/03 04:49:03;;;;;;;35.72;25.10;;;;;;;16.15;100.00;100841.94;3585264;39;20096;-54
2021/07/03 04:51:30;;;;;;;35.10;23.83;;;;;;;15.98;100.00;100841.84;3584977;39;20080;-53
2021/07/03 04:53:58;;;;;;;36.80;24.40;;;;;;;16.29;100.00;100842.00;3584907;39;20068;-52
2021/07/03 04:56:25;;;;;;;36.42;24.95;;;;;;;16.08;100.00;100847.06;3584860;39;20479;-54
2021/07/03 04:58:52;;;;;;;36.08;24.67;;;;;;;15.90;100.00;100847.81;3584457;39;20056;-54
2021/07/03 05:01:19;;;;;;;34.42;24.05;;;;;;;16.11;100.00;100847.94;3584593;39;20100;-54
2021/07/03 05:03:46;;;;;;;38.33;24.65;;;;;;;16.07;100.00;100845.31;3584991;39;20126;-53
2021/07/03 05:06:13;;;;;;;42.38;25.63;;;;;;;15.86;100.00;100836.59;3585144;39;20064;-58
2021/07/03 05:08:40;;;;;;;35.60;25.45;;;;;;;16.11;100.00;100841.91;3584322;39;20318;-53
2021/07/03 05:11:08;;;;;;;38.40;25.17;;;;;;;16.18;100.00;100846.28;3584630;39;20294;-54
2021/07/03 05:13:35;;;;;;;41.45;25.08;;;;;;;16.38;100.00;100854.09;3584855;39;20072;-53
2021/07/03 05:16:03;;;;;;;35.45;24.92;;;;;;;16.40;100.00;100848.06;3584633;39;20064;-56
2021/07/03 05:18:30;;;;;;;35.40;26.08;;;;;;;16.48;100.00;100848.97;3584989;39;20064;-55
2021/07/03 05:20:57;;;;;;;37.97;25.20;;;;;;;16.55;100.00;100850.75;3584618;39;20091;-54
2021/07/03 05:23:24;;;;;;;38.08;23.95;;;;;;;16.86;100.00;100853.44;3583936;39;20036;-53
2021/07/03 05:25:54;;;;;;;46.75;26.38;;;;;;;16.69;100.00;100857.69;3584582;39;20112;-56
2021/07/03 05:28:21;;;;;;;34.63;23.50;;;;;;;16.92;100.00;100850.03;3584317;39;20789;-50
2021/07/03 05:30:48;;;;;;;42.10;24.40;;;;;;;16.81;100.00;100857.75;3584614;39;20053;-53
2021/07/03 05:33:16;;;;;;;46.38;23.65;;;;;;;16.83;100.00;100855.19;3577859;39;20064;-56
2021/07/03 05:35:43;;;;;;;38.40;24.77;;;;;;;16.60;100.00;100857.66;3574300;40;20077;-53
2021/07/03 05:38:10;;;;;;;35.03;24.58;;;;;;;16.63;100.00;100863.69;3574322;40;20088;-53
2021/07/03 05:40:37;;;;;;;32.35;23.48;;;;;;;17.00;100.00;100858.63;3574553;40;20053;-54
2021/07/03 05:43:04;;;;;;;33.38;24.20;;;;;;;16.64;100.00;100861.94;3574701;40;20064;-52
2021/07/03 05:45:32;;;;;;;33.63;22.42;;;;;;;17.25;100.00;100854.38;3574775;40;20085;-51
2021/07/03 05:47:59;;;;;;;34.63;23.13;;;;;;;17.47;100.00;100856.13;3574686;40;20092;-52
2021/07/03 05:50:28;;;;;;;30.63;20.67;;;;;;;17.36;100.00;100847.47;3574384;40;20096;-54
2021/07/03 05:52:55;;;;;;;32.40;22.73;;;;;;;17.54;100.00;100849.22;3574309;40;20069;-54
2021/07/03 05:55:22;;;;;;;32.25;21.65;;;;;;;17.53;100.00;100845.75;3574544;40;22081;-52
2021/07/03 05:57:50;;;;;;;28.77;21.13;;;;;;;17.54;98.17;100844.88;3574509;40;20067;-55
2021/07/03 06:00:18;;;;;;;25.92;20.67;;;;;;;17.80;97.94;100852.69;3574562;40;20049;-50
2021/07/03 06:02:45;;;;;;;27.20;19.15;;;;;;;18.04;94.83;100854.34;3574320;40;20101;-52
2021/07/03 06:05:12;;;;;;;26.98;19.27;;;;;;;18.13;96.95;100860.38;3574432;40;20071;-54
2021/07/03 06:07:40;;;;;;;26.10;18.90;;;;;;;18.23;94.23;100860.34;3574103;40;20136;-53
2021/07/03 06:10:08;;;;;;;24.65;17.25;;;;;;;18.39;91.18;100861.16;3574411;40;20116;-50
2021/07/03 06:12:35;;;;;;;22.45;17.10;;;;;;;18.16;91.31;100858.63;3574232;40;20085;-52
2021/07/03 06:15:05;;;;;;;22.45;17.35;;;;;;;18.43;91.04;100860.28;3567048;40;20049;-52
2021/07/03 06:17:32;;;;;;;24.23;17.85;;;;;;;18.46;91.82;100862.88;3564505;40;20090;-52
2021/07/03 06:19:59;;;;;;;28.92;17.63;;;;;;;18.77;90.98;100863.63;3564962;40;20413;-52
2021/07/03 06:22:26;;;;;;;23.05;16.77;;;;;;;18.70;90.78;100859.31;3564464;40;20061;-53
2021/07/03 06:24:53;;;;;;;24.70;17.95;;;;;;;18.50;92.31;100853.34;3564529;40;20128;-54
2021/07/03 06:27:20;;;;;;;22.75;17.20;;;;;;;18.62;91.07;100855.00;3563964;40;20116;-52
2021/07/03 06:29:47;;;;;;;23.02;17.30;;;;;;;18.75;92.04;100859.28;3563836;40;20065;-52
2021/07/03 06:32:14;;;;;;;23.77;16.50;;;;;;;18.99;91.36;100856.56;3564509;40;20467;-50
2021/07/03 06:34:41;;;;;;;20.63;16.23;;;;;;;18.62;93.10;100862.78;3563563;40;20093;-52
2021/07/03 06:37:08;;;;;;;22.20;17.20;;;;;;;18.60;93.12;100855.03;3564265;40;20447;-53
2021/07/03 06:39:35;;;;;;;20.60;16.90;;;;;;;18.72;93.34;100855.00;3564224;40;20061;-53
2021/07/03 06:42:03;;;;;;;24.02;16.63;;;;;;;19.30;86.89;100854.63;3564356;40;20093;-53
2021/07/03 06:44:30;;;;;;;23.70;16.35;;;;;;;19.45;87.10;100855.38;3564172;40;20056;-54
2021/07/03 06:46:57;;;;;;;21.40;16.10;;;;;;;19.24;85.73;100856.41;3564152;40;20427;-55
2021/07/03 06:49:24;;;;;;;21.55;16.77;;;;;;;19.89;85.78;100860.22;3563900;40;20072;-51
2021/07/03 06:51:51;;;;;;;20.70;15.60;;;;;;;20.17;82.89;100862.53;3563832;40;20057;-53
2021/07/03 06:54:18;;;;;;;25.63;15.68;;;;;;;19.90;87.31;100864.53;3564221;40;20061;-52
2021/07/03 06:56:45;;;;;;;20.60;13.82;;;;;;;20.65;80.89;100865.44;3563824;40;20085;-53
2021/07/03 06:59:12;;;;;;;20.92;14.55;;;;;;;20.66;77.95;100864.53;3563797;40;20324;-53
2021/07/03 07:01:39;;;;;;;16.58;13.35;;;;;;;20.77;80.69;100862.69;3563934;40;20513;-53
2021/07/03 07:04:06;;;;;;;21.75;13.88;;;;;;;20.77;80.93;100860.06;3564078;40;20077;-53
2021/07/03 07:06:33;;;;;;;16.67;13.38;;;;;;;20.81;77.15;100866.97;3563834;40;20121;-54
2021/07/03 07:09:00;;;;;;;19.90;13.35;;;;;;;21.40;75.89;100860.03;3564004;40;20063;-51
2021/07/03 07:11:28;;;;;;;18.02;13.70;;;;;;;21.18;77.01;100861.22;3564228;40;20524;-54
2021/07/03 07:13:55;;;;;;;15.00;12.25;;;;;;;21.20;78.83;100860.31;3563934;40;20061;-51
2021/07/03 07:16:22;;;;;;;15.70;12.68;;;;;;;21.28;77.05;100861.03;3564350;40;20120;-53
2021/07/03 07:18:49;;;;;;;18.23;13.23;;;;;;;20.92;77.75;100848.56;3563964;40;20074;-50
2021/07/03 07:21:16;;;;;;;17.75;12.63;;;;;;;20.98;76.09;100851.09;3563901;40;20062;-56
2021/07/03 07:23:43;;;;;;;20.08;13.13;;;;;;;21.24;74.42;100848.94;3563667;40;20354;-51
2021/07/03 07:26:10;;;;;;;15.07;11.77;;;;;;;21.30;74.74;100850.59;3563747;40;20046;-51
2021/07/03 07:28:37;;;;;;;16.27;12.88;;;;;;;21.28;75.90;100842.81;3563693;40;20105;-52
2021/07/03 07:31:04;;;;;;;20.88;13.20;;;;;;;21.50;75.38;100843.38;3563744;40;20362;-51
2021/07/03 07:33:31;;;;;;;14.85;11.85;;;;;;;21.79;73.54;100845.44;3564056;40;20075;-54
2021/07/03 07:35:58;;;;;;;14.63;12.50;;;;;;;21.35;74.66;100838.38;3563582;40;20049;-51
2021/07/03 07:38:27;;;;;;;19.08;13.48;;;;;;;21.68;74.35;100841.28;3563591;40;20054;-52
2021/07/03 07:40:54;;;;;;;15.27;12.50;;;;;;;21.79;73.30;100834.16;3563688;40;20109;-53
2021/07/03 07:43:21;;;;;;;16.20;11.73;;;;;;;22.32;73.13;100837.50;3563693;40;20087;-56
2021/07/03 07:45:48;;;;;;;12.93;11.35;;;;;;;22.29;71.16;100833.22;3563287;40;20058;-53
2021/07/03 07:48:15;;;;;;;19.40;13.88;;;;;;;22.29;71.80;100830.63;3563283;40;20061;-52
2021/07/03 07:50:43;;;;;;;17.75;13.00;;;;;;;22.95;68.74;100836.19;3563660;40;20049;-53
2021/07/03 07:53:10;;;;;;;16.35;12.10;;;;;;;23.29;68.09;100831.84;3563338;40;20083;-54
2021/07/03 07:55:37;;;;;;;18.77;13.57;;;;;;;22.94;66.15;100835.31;3563497;40;20142;-53
2021/07/03 07:58:04;;;;;;;18.65;13.20;;;;;;;22.69;65.70;100837.56;3563425;40;20072;-56
2021/07/03 08:00:31;;;;;;;14.35;11.68;;;;;;;22.69;69.39;100836.72;3563706;40;20057;-52
2021/07/03 08:02:58;;;;;;;17.45;12.88;;;;;;;22.44;66.74;100825.97;3563535;40;20113;-55
2021/07/03 08:05:28;;;;;;;16.08;12.15;;;;;;;21.88;67.80;100830.53;3563020;40;20053;-53
2021/07/03 08:07:55;;;;;;;14.85;11.30;;;;;;;22.41;66.89;100828.63;3565603;40;20059;-56
2021/07/03 08:10:23;;;;;;;14.25;10.65;;;;;;;23.20;63.33;100829.47;3573565;40;20399;-57
2021/07/03 08:12:49;;;;;;;16.48;11.07;;;;;;;23.33;63.53;100833.50;3573273;40;20409;-54
2021/07/03 08:15:17;;;;;;;16.52;11.57;;;;;;;23.68;62.67;100836.16;3573586;40;20476;-51
2021/07/03 08:17:44;;;;;;;16.17;12.85;;;;;;;23.70;62.61;100826.50;3573692;40;20454;-56
2021/07/03 08:20:17;;;;;;;14.55;11.80;;;;;;;24.08;61.60;100835.91;3573112;40;20446;-54
2021/07/03 08:22:46;;;;;;;17.23;12.98;;;;;;;24.16;60.97;100827.88;3580344;39;20336;-53
2021/07/03 08:25:14;;;;;;;14.90;12.32;;;;;;;24.54;61.85;100834.63;3584615;39;20421;-56
2021/07/03 08:27:41;;;;;;;19.05;12.35;;;;;;;24.59;61.38;100833.63;3584781;39;20111;-54
2021/07/03 08:30:09;;;;;;;23.55;13.65;;;;;;;23.87;61.32;100829.53;3583856;39;20310;-57
2021/07/03 08:32:37;;;;;;;12.93;11.43;;;;;;;23.61;64.51;100832.78;3583464;39;20084;-52
2021/07/03 08:35:06;;;;;;;14.05;12.43;;;;;;;23.00;65.82;100835.16;3583456;39;20430;-55
2021/07/03 08:37:33;;;;;;;14.98;12.65;;;;;;;22.05;67.58;100831.94;3583373;39;20213;-55
2021/07/03 08:40:02;;;;;;;16.75;13.32;;;;;;;21.98;69.21;100838.13;3583696;39;20359;-53
2021/07/03 08:42:30;;;;;;;16.15;13.88;;;;;;;21.99;70.41;100828.56;3583162;39;20061;-55
2021/07/03 08:44:56;;;;;;;19.45;14.35;;;;;;;;;;3583261;39;20127;-57
2021/07/03 08:47:23;;;;;;;18.75;14.32;;;;;;;21.57;70.20;100829.31;3582890;39;20100;-52
2021/07/03 08:49:56;;;;;;;18.25;13.85;;;;;;;21.37;73.13;100818.41;3582911;39;20036;-51
2021/07/03 08:52:25;;;;;;;16.55;13.57;;;;;;;21.70;70.68;100827.38;3583233;39;20113;-52
2021/07/03 08:55:06;;;;;;;18.67;14.43;;;;;;;21.59;70.08;100824.97;3583082;39;20115;-53
2021/07/03 08:57:51;;;;;;;16.67;13.30;;;;;;;21.29;72.54;100815.00;3583662;39;20052;-54
2021/07/03 09:00:29;;;;;;;16.33;13.52;;;;;;;21.48;70.58;100815.59;3584670;39;20379;-53
2021/07/03 09:02:56;;;;;;;17.42;13.15;;;;;;;21.63;72.31;100823.16;3585354;39;20052;-56
2021/07/03 09:05:30;;;;;;;17.40;13.20;;;;;;;21.71;71.72;100810.84;3584795;39;20080;-53
2021/07/03 09:07:59;;;;;;;14.90;13.07;;;;;;;21.44;70.68;100806.09;3584800;39;20470;-51
2021/07/03 09:10:27;;;;;;;15.55;12.77;;;;;;;21.83;68.53;100809.75;3584566;39;20057;-51
2021/07/03 09:12:59;;;;;;;14.82;12.07;;;;;;;22.19;66.61;100810.81;3584533;39;20065;-56
2021/07/03 09:15:38;;;;;;;14.07;11.60;;;;;;;22.57;63.88;100807.41;3584860;39;20060;-56
2021/07/03 09:18:07;;;;;;;15.52;11.95;;;;;;;22.26;65.90;100801.09;3584452;39;20040;-57
2021/07/03 09:20:42;;;;;;;14.25;11.57;;;;;;;22.79;66.27;100804.31;3584634;39;20120;-54
2021/07/03 09:23:15;;;;;;;20.23;13.85;;;;;;;23.35;62.83;100809.97;3584581;39;20447;-51
2021/07/03 09:25:44;;;;;;;16.00;13.52;;;;;;;23.62;62.22;100806.63;3584505;39;20438;-54
2021/07/03 09:28:15;;;;;;;17.05;14.32;;;;;;;23.57;61.39;100807.63;3584512;39;20058;-55
2021/07/03 09:30:44;;;;;;;19.08;14.90;;;;;;;24.02;60.51;100802.09;3584572;39;20059;-48
2021/07/03 09:33:16;;;;;;;15.30;12.40;;;;;;;24.43;60.34;100800.91;3585174;39;20055;-52
2021/07/03 09:35:44;;;;;;;16.75;13.70;;;;;;;24.18;59.81;100797.28;3585144;39;20077;-53
2021/07/03 09:38:13;;;;;;;15.25;13.57;;;;;;;23.84;60.66;100793.84;3577730;39;20057;-51
2021/07/03 09:40:40;;;;;;;18.23;12.07;;;;;;;23.97;60.09;100794.38;3574711;40;20357;-51
2021/07/03 09:43:10;;;;;;;13.38;11.52;;;;;;;23.95;59.97;100795.34;3574803;40;20097;-54
2021/07/03 09:45:47;;;;;;;11.25;9.95;;;;;;;24.38;60.27;100790.59;3574196;40;20055;-50
2021/07/03 09:48:14;;;;;;;10.27;7.82;;;;;;;25.16;58.24;100787.31;3574407;40;20073;-51
2021/07/03 09:50:42;;;;;;;12.52;9.02;;;;;;;24.37;54.89;100782.78;3574201;40;20401;-53
2021/07/03 09:53:09;;;;;;;11.57;9.52;;;;;;;25.21;52.90;100781.91;3574472;40;20080;-53
2021/07/03 09:55:37;;;;;;;11.82;8.73;;;;;;;25.83;53.76;100786.75;3574459;40;20071;-51
2021/07/03 09:58:09;;;;;;;9.27;8.00;;;;;;;26.71;50.42;100786.94;3574226;40;20061;-49
2021/07/03 10:00:38;;;;;;;9.52;6.65;;;;;;;26.65;49.20;100791.53;3574079;40;20135;-53
2021/07/03 10:03:07;;;;;;;9.52;7.82;;;;;;;26.86;48.45;100792.47;3574446;40;20135;-49
2021/07/03 10:05:44;;;;;;;8.15;7.22;;;;;;;28.17;45.44;100793.03;3574180;40;20056;-54
2021/07/03 10:08:15;;;;;;;11.10;8.32;;;;;;;28.27;45.75;100799.56;3574130;40;20060;-48
2021/07/03 10:10:49;;;;;;;8.80;7.65;;;;;;;29.34;44.57;100788.28;3573818;40;20397;-50
2021/07/03 10:13:19;;;;;;;7.20;6.60;;;;;;;28.63;44.59;100789.13;3574252;40;20085;-51
2021/07/03 10:15:47;;;;;;;8.10;7.28;;;;;;;29.86;42.22;100794.41;3574080;40;20067;-51
2021/07/03 10:18:19;;;;;;;7.45;6.80;;;;;;;30.67;39.24;100789.94;3574337;40;20309;-53
2021/07/03 10:20:47;;;;;;;9.05;7.57;;;;;;;29.29;40.91;100790.31;3573846;40;20073;-49
2021/07/03 10:23:14;;;;;;;9.43;7.07;;;;;;;28.07;43.41;100786.47;3573831;40;20131;-52
2021/07/03 10:25:44;;;;;;;6.53;5.80;;;;;;;27.41;41.90;100778.84;3573952;40;20143;-51
2021/07/03 10:28:14;;;;;;;6.57;5.97;;;;;;;26.80;40.93;100776.06;3574093;40;20089;-49
2021/07/03 10:30:48;;;;;;;5.93;5.30;;;;;;;26.71;44.13;100781.69;3573983;40;20348;-49
2021/07/03 10:33:22;;;;;;;7.37;6.67;;;;;;;26.63;42.27;100772.38;3574330;40;20165;-50
2021/07/03 10:35:49;;;;;;;6.97;6.07;;;;;;;26.04;44.47;100770.22;3573951;40;20858;-50
2021/07/03 10:38:23;;;;;;;9.05;7.53;;;;;;;26.28;44.37;100768.44;3574293;40;20076;-50
2021/07/03 10:40:55;;;;;;;7.97;6.93;;;;;;;26.02;47.79;100768.56;3574089;40;20433;-48
2021/07/03 10:43:23;;;;;;;8.82;7.32;;;;;;;25.63;49.82;100769.06;3574375;40;20093;-48
2021/07/03 10:45:52;;;;;;;9.32;8.40;;;;;;;25.49;47.54;100766.09;3574022;40;20064;-50
2021/07/03 10:48:23;;;;;;;7.18;6.45;;;;;;;25.42;48.73;100765.44;3573838;40;20093;-49
2021/07/03 10:50:53;;;;;;;7.22;6.25;;;;;;;25.30;47.82;100761.47;3573864;40;20100;-52
2021/07/03 10:53:25;;;;;;;7.07;6.38;;;;;;;25.36;47.13;100765.66;3574155;40;20414;-51
2021/07/03 10:55:53;;;;;;;8.07;6.25;;;;;;;25.71;45.81;100767.03;3574007;40;20121;-51
2021/07/03 10:58:29;;;;;;;15.63;7.38;;;;;;;25.67;49.29;100762.81;3574165;40;20067;-52
2021/07/03 11:01:12;;;;;;;;;;;;;;;26.31;47.86;100763.09;3574714;40;20049;-52
2021/07/03 11:03:44;;;;;;;11.10;6.90;;;;;;;26.03;50.22;100765.06;3574037;40;19977;-52
2021/07/03 11:06:14;;;;;;;6.43;5.85;;;;;;;25.73;48.67;100757.34;3574009;40;20101;-48
2021/07/03 11:08:47;;;;;;;7.43;5.57;;;;;;;26.79;44.88;100755.97;3574081;40;20068;-46
2021/07/03 11:11:16;;;;;;;6.15;5.55;;;;;;;26.94;43.12;100757.13;3574145;40;20100;-45